Terminal Aerodrome Forecast
Issued by NWS Duluth, MN

Home | Current Version | Previous Version | Text Only | Print | Product List | Glossary On
Versions: 1 2 3 4 5 6 7 8 9 10 11 12 13
000
FTUS43 KDLH 131727
TAFINL
TAF
KINL 131727Z 1318/1418 15004KT P6SM SKC
     FM132200 18006KT P6SM BKN080
     FM140200 20007KT P6SM SCT050 WS018/23035KT
     FM140500 21008KT P6SM SCT040 WS020/24040KT
     FM140900 23005KT P6SM SCT020=

USA.gov is the U.S. government's official web portal to all federal, state and local government web resources and services.